sensor_id;sensor_type;location;lat;lon;timestamp;P1;durP1;ratioP1;P2;durP2;ratioP2
33092;SDS011;19456;46.104;12.908;2023-03-09T14:25:00;15.90;;;7.25;;
33092;SDS011;19456;46.104;12.908;2023-03-09T14:27:30;15.02;;;7.30;;
33092;SDS011;19456;46.104;12.908;2023-03-09T15:05:39;12.80;;;7.47;;
33092;SDS011;19456;46.104;12.908;2023-03-09T16:02:48;15.13;;;8.13;;
33092;SDS011;19456;46.104;12.908;2023-03-09T16:05:13;19.90;;;8.10;;
33092;SDS011;19456;46.104;12.908;2023-03-09T16:07:39;15.18;;;7.10;;
33092;SDS011;19456;46.104;12.908;2023-03-09T16:10:05;17.10;;;9.23;;
33092;SDS011;19456;46.104;12.908;2023-03-09T16:12:31;13.10;;;8.48;;
33092;SDS011;19456;46.104;12.908;2023-03-09T16:14:56;19.77;;;9.35;;
33092;SDS011;19456;46.104;12.908;2023-03-09T16:17:22;19.85;;;9.23;;
33092;SDS011;19456;46.104;12.908;2023-03-09T16:19:48;20.67;;;9.48;;
33092;SDS011;19456;46.104;12.908;2023-03-09T16:22:16;15.77;;;9.02;;
33092;SDS011;19456;46.104;12.908;2023-03-09T16:24:41;20.83;;;9.20;;
33092;SDS011;19456;46.104;12.908;2023-03-09T16:27:07;25.98;;;9.75;;
33092;SDS011;19456;46.104;12.908;2023-03-09T16:29:33;18.52;;;9.57;;
33092;SDS011;19456;46.104;12.908;2023-03-09T16:31:59;19.35;;;9.60;;
33092;SDS011;19456;46.104;12.908;2023-03-09T16:34:29;17.58;;;8.65;;
33092;SDS011;19456;46.104;12.908;2023-03-09T16:36:56;16.50;;;8.70;;
33092;SDS011;19456;46.104;12.908;2023-03-09T16:39:21;18.02;;;9.07;;
33092;SDS011;19456;46.104;12.908;2023-03-09T16:41:49;18.27;;;8.85;;
33092;SDS011;19456;46.104;12.908;2023-03-09T16:44:16;16.60;;;8.65;;
33092;SDS011;19456;46.104;12.908;2023-03-09T16:46:47;22.45;;;9.20;;
33092;SDS011;19456;46.104;12.908;2023-03-09T16:49:15;18.65;;;9.25;;
33092;SDS011;19456;46.104;12.908;2023-03-09T16:51:41;17.80;;;9.07;;
33092;SDS011;19456;46.104;12.908;2023-03-09T16:54:06;15.88;;;8.95;;
33092;SDS011;19456;46.104;12.908;2023-03-09T16:56:32;20.90;;;9.25;;
33092;SDS011;19456;46.104;12.908;2023-03-09T16:58:58;20.67;;;8.20;;
33092;SDS011;19456;46.104;12.908;2023-03-09T17:01:24;23.55;;;10.07;;
33092;SDS011;19456;46.104;12.908;2023-03-09T17:03:50;20.17;;;9.55;;
33092;SDS011;19456;46.104;12.908;2023-03-09T17:06:19;14.35;;;8.43;;
33092;SDS011;19456;46.104;12.908;2023-03-09T17:08:47;21.87;;;9.80;;
33092;SDS011;19456;46.104;12.908;2023-03-09T17:11:15;22.40;;;8.98;;
33092;SDS011;19456;46.104;12.908;2023-03-09T17:13:42;16.63;;;8.95;;
33092;SDS011;19456;46.104;12.908;2023-03-09T17:16:09;23.55;;;9.30;;
33092;SDS011;19456;46.104;12.908;2023-03-09T17:18:36;19.55;;;8.63;;
33092;SDS011;19456;46.104;12.908;2023-03-09T17:21:01;20.25;;;8.70;;
33092;SDS011;19456;46.104;12.908;2023-03-09T17:23:28;15.38;;;8.60;;
33092;SDS011;19456;46.104;12.908;2023-03-09T17:52:47;22.50;;;10.20;;
33092;SDS011;19456;46.104;12.908;2023-03-09T17:55:13;18.97;;;11.20;;
33092;SDS011;19456;46.104;12.908;2023-03-09T17:57:38;18.75;;;10.02;;
33092;SDS011;19456;46.104;12.908;2023-03-09T18:00:04;22.70;;;12.23;;
33092;SDS011;19456;46.104;12.908;2023-03-09T18:02:32;24.00;;;11.82;;
33092;SDS011;19456;46.104;12.908;2023-03-09T18:04:58;19.33;;;11.65;;
33092;SDS011;19456;46.104;12.908;2023-03-09T18:07:24;33.28;;;11.82;;
33092;SDS011;19456;46.104;12.908;2023-03-09T18:09:50;28.55;;;12.15;;
33092;SDS011;19456;46.104;12.908;2023-03-09T18:12:16;22.70;;;11.57;;
33092;SDS011;19456;46.104;12.908;2023-03-09T18:14:43;23.92;;;11.95;;
33092;SDS011;19456;46.104;12.908;2023-03-09T18:17:09;20.33;;;11.13;;
33092;SDS011;19456;46.104;12.908;2023-03-09T18:19:34;28.42;;;11.73;;
33092;SDS011;19456;46.104;12.908;2023-03-09T18:22:00;23.67;;;12.25;;
33092;SDS011;19456;46.104;12.908;2023-03-09T18:24:26;17.95;;;11.18;;
33092;SDS011;19456;46.104;12.908;2023-03-09T18:26:51;23.20;;;11.88;;
33092;SDS011;19456;46.104;12.908;2023-03-09T18:29:18;24.38;;;12.20;;
33092;SDS011;19456;46.104;12.908;2023-03-09T18:31:48;27.55;;;12.13;;
33092;SDS011;19456;46.104;12.908;2023-03-09T18:34:15;20.75;;;11.55;;
33092;SDS011;19456;46.104;12.908;2023-03-09T18:36:40;22.63;;;12.03;;
33092;SDS011;19456;46.104;12.908;2023-03-09T18:39:06;21.17;;;10.68;;
33092;SDS011;19456;46.104;12.908;2023-03-09T18:41:33;19.40;;;10.80;;
33092;SDS011;19456;46.104;12.908;2023-03-09T18:43:59;20.20;;;11.85;;
33092;SDS011;19456;46.104;12.908;2023-03-09T18:46:24;24.35;;;11.70;;
33092;SDS011;19456;46.104;12.908;2023-03-09T18:48:50;19.42;;;11.63;;
33092;SDS011;19456;46.104;12.908;2023-03-09T18:51:16;20.30;;;11.70;;
33092;SDS011;19456;46.104;12.908;2023-03-09T18:53:41;24.70;;;12.02;;
33092;SDS011;19456;46.104;12.908;2023-03-09T18:56:08;20.92;;;12.30;;
33092;SDS011;19456;46.104;12.908;2023-03-09T18:58:38;23.73;;;11.82;;
33092;SDS011;19456;46.104;12.908;2023-03-09T19:01:08;19.85;;;12.30;;
33092;SDS011;19456;46.104;12.908;2023-03-09T19:03:35;28.40;;;13.00;;
33092;SDS011;19456;46.104;12.908;2023-03-09T19:06:02;19.55;;;12.55;;
33092;SDS011;19456;46.104;12.908;2023-03-09T19:08:34;22.55;;;12.15;;
33092;SDS011;19456;46.104;12.908;2023-03-09T19:11:04;22.00;;;12.60;;
33092;SDS011;19456;46.104;12.908;2023-03-09T19:13:33;19.67;;;11.25;;
33092;SDS011;19456;46.104;12.908;2023-03-09T19:16:00;25.85;;;12.85;;
33092;SDS011;19456;46.104;12.908;2023-03-09T19:18:26;24.95;;;13.32;;
33092;SDS011;19456;46.104;12.908;2023-03-09T19:20:52;25.97;;;13.40;;
33092;SDS011;19456;46.104;12.908;2023-03-09T19:23:19;22.80;;;13.10;;
33092;SDS011;19456;46.104;12.908;2023-03-09T19:25:52;28.10;;;13.30;;
33092;SDS011;19456;46.104;12.908;2023-03-09T19:28:19;23.95;;;12.85;;
33092;SDS011;19456;46.104;12.908;2023-03-09T19:33:10;20.52;;;12.90;;
33092;SDS011;19456;46.104;12.908;2023-03-09T19:35:36;28.90;;;13.10;;
33092;SDS011;19456;46.104;12.908;2023-03-09T19:38:02;23.45;;;11.90;;
33092;SDS011;19456;46.104;12.908;2023-03-09T19:40:28;20.45;;;13.05;;
33092;SDS011;19456;46.104;12.908;2023-03-09T19:42:54;20.33;;;12.27;;
33092;SDS011;19456;46.104;12.908;2023-03-09T19:45:20;24.77;;;12.77;;
33092;SDS011;19456;46.104;12.908;2023-03-09T19:47:45;29.13;;;12.75;;
33092;SDS011;19456;46.104;12.908;2023-03-09T19:50:11;28.15;;;13.60;;
33092;SDS011;19456;46.104;12.908;2023-03-09T19:52:37;21.20;;;12.70;;
33092;SDS011;19456;46.104;12.908;2023-03-09T19:55:03;19.55;;;12.45;;
33092;SDS011;19456;46.104;12.908;2023-03-09T19:57:29;21.63;;;13.68;;
33092;SDS011;19456;46.104;12.908;2023-03-09T19:59:55;22.60;;;12.38;;
33092;SDS011;19456;46.104;12.908;2023-03-09T20:02:21;24.00;;;12.98;;
33092;SDS011;19456;46.104;12.908;2023-03-09T20:04:47;22.10;;;12.98;;
33092;SDS011;19456;46.104;12.908;2023-03-09T20:07:13;23.88;;;13.45;;
33092;SDS011;19456;46.104;12.908;2023-03-09T20:09:39;30.58;;;13.68;;
33092;SDS011;19456;46.104;12.908;2023-03-09T20:12:05;23.52;;;13.32;;
33092;SDS011;19456;46.104;12.908;2023-03-09T20:14:31;24.85;;;14.50;;
33092;SDS011;19456;46.104;12.908;2023-03-09T20:16:57;24.58;;;14.40;;
33092;SDS011;19456;46.104;12.908;2023-03-09T20:19:23;26.35;;;13.85;;
33092;SDS011;19456;46.104;12.908;2023-03-09T20:21:49;22.50;;;13.88;;
33092;SDS011;19456;46.104;12.908;2023-03-09T20:24:17;22.50;;;13.57;;
33092;SDS011;19456;46.104;12.908;2023-03-09T20:26:45;26.42;;;13.40;;
33092;SDS011;19456;46.104;12.908;2023-03-09T20:29:13;23.75;;;13.38;;
33092;SDS011;19456;46.104;12.908;2023-03-09T20:31:44;26.00;;;13.68;;
33092;SDS011;19456;46.104;12.908;2023-03-09T20:34:12;21.70;;;13.15;;
33092;SDS011;19456;46.104;12.908;2023-03-09T20:36:38;22.65;;;12.52;;
33092;SDS011;19456;46.104;12.908;2023-03-09T20:39:05;24.35;;;12.52;;
33092;SDS011;19456;46.104;12.908;2023-03-09T20:41:32;22.55;;;12.77;;
33092;SDS011;19456;46.104;12.908;2023-03-09T20:43:58;22.50;;;12.02;;
33092;SDS011;19456;46.104;12.908;2023-03-09T20:46:25;20.10;;;11.82;;
33092;SDS011;19456;46.104;12.908;2023-03-09T20:48:55;25.38;;;13.07;;
33092;SDS011;19456;46.104;12.908;2023-03-09T20:51:23;25.95;;;12.60;;
33092;SDS011;19456;46.104;12.908;2023-03-09T20:53:50;23.42;;;13.15;;
33092;SDS011;19456;46.104;12.908;2023-03-09T20:56:17;23.10;;;12.98;;
33092;SDS011;19456;46.104;12.908;2023-03-09T20:58:44;21.10;;;12.43;;
33092;SDS011;19456;46.104;12.908;2023-03-09T21:01:12;24.27;;;12.77;;
33092;SDS011;19456;46.104;12.908;2023-03-09T21:03:39;26.90;;;14.00;;
33092;SDS011;19456;46.104;12.908;2023-03-09T21:06:05;24.90;;;14.35;;
33092;SDS011;19456;46.104;12.908;2023-03-09T21:08:32;25.77;;;15.55;;
33092;SDS011;19456;46.104;12.908;2023-03-09T21:10:58;24.98;;;15.65;;
33092;SDS011;19456;46.104;12.908;2023-03-09T21:13:28;27.45;;;14.32;;
33092;SDS011;19456;46.104;12.908;2023-03-09T21:15:54;28.98;;;15.43;;
33092;SDS011;19456;46.104;12.908;2023-03-09T21:18:20;28.90;;;15.57;;
33092;SDS011;19456;46.104;12.908;2023-03-09T21:20:53;22.15;;;14.13;;
33092;SDS011;19456;46.104;12.908;2023-03-09T21:23:20;28.07;;;15.83;;
33092;SDS011;19456;46.104;12.908;2023-03-09T21:25:46;25.13;;;14.05;;
33092;SDS011;19456;46.104;12.908;2023-03-09T21:28:11;25.67;;;14.73;;
33092;SDS011;19456;46.104;12.908;2023-03-09T23:32:31;20.95;;;13.55;;
33092;SDS011;19456;46.104;12.908;2023-03-09T23:34:57;22.33;;;13.15;;
33092;SDS011;19456;46.104;12.908;2023-03-09T23:37:23;18.08;;;12.98;;
33092;SDS011;19456;46.104;12.908;2023-03-09T23:39:50;21.33;;;12.23;;
33092;SDS011;19456;46.104;12.908;2023-03-09T23:42:16;19.23;;;12.82;;
33092;SDS011;19456;46.104;12.908;2023-03-09T23:44:42;23.70;;;12.88;;
33092;SDS011;19456;46.104;12.908;2023-03-09T23:47:07;24.60;;;13.65;;
33092;SDS011;19456;46.104;12.908;2023-03-09T23:49:33;25.50;;;14.88;;
33092;SDS011;19456;46.104;12.908;2023-03-09T23:51:59;20.88;;;12.57;;
33092;SDS011;19456;46.104;12.908;2023-03-09T23:54:24;19.80;;;12.45;;
33092;SDS011;19456;46.104;12.908;2023-03-09T23:56:50;18.95;;;12.48;;
33092;SDS011;19456;46.104;12.908;2023-03-09T23:59:16;22.00;;;13.18;;
